»·PEaware :: UAL794 KPDX-KSFO

UAL794 :: KPDX-KSFO

FLIGHT INFORMATION

Flight Status: Arrived
Operator:
United Airlines
More flights by this operator :: More flights under this callsign
Pilot: Saso K. (7898)
Aircraft: AIRBUS A320
(A320)
More flights by this aircraft type
Origin: KPDX Portland Intl
United States
Destination: KSFO San Francisco Intl
United States
More flights between these airports :: More routes between these airports
Route: MINNE5 EASON Q1 ENVIE MLBEC BDEGA2
File this flight plan on PilotEdge
Remarks: EET / KZOA0038
Altitude:
(Current/Filed)
37,000ft
Speed:
(Current/Filed)
439kts
Departed: 04-Jun-17 03:45 PM
Arrived: 04-Jun-17 05:17 PM
Distance/Time
Traveled:
478nm/1:32
Distance/Time
To Go:
Arrived

Flight Plot

Page will automatically refresh every two minutes.

Flight plan parsing failed; only flown route is shown


Map Options




Map Legend


Flown Route
Filed Route
Departure Airport
Arrival Airport
Navaid (VOR, NDB)
Fix

Horizontal Profiles

Position Reports

Time Latitude Longitude Heading Altitude Ground
Speed
04-Jun-17 15:15 45.590046 -122.591046 209 25ft 0kts
04-Jun-17 15:16 45.590046 -122.591046 209 25ft 0kts
04-Jun-17 15:17 45.590046 -122.591046 209 25ft 0kts
04-Jun-17 15:18 45.590046 -122.591046 209 25ft 0kts
04-Jun-17 15:19 45.590046 -122.591046 209 25ft 0kts
04-Jun-17 15:20 45.590046 -122.591046 209 25ft 0kts
04-Jun-17 15:21 45.590046 -122.591046 209 25ft 0kts
04-Jun-17 15:22 45.590046 -122.591046 209 25ft 0kts
04-Jun-17 15:23 45.590046 -122.591046 209 25ft 0kts
04-Jun-17 15:24 45.590046 -122.591046 209 25ft 0kts
04-Jun-17 15:25 45.590046 -122.591046 209 25ft 0kts
04-Jun-17 15:26 45.590046 -122.591046 209 25ft 0kts
04-Jun-17 15:27 45.590046 -122.591046 209 25ft 0kts
04-Jun-17 15:28 45.590046 -122.591046 209 25ft 0kts
04-Jun-17 15:29 45.590046 -122.591046 209 25ft 0kts
04-Jun-17 15:30 45.590046 -122.591046 209 25ft 0kts
04-Jun-17 15:31 45.590046 -122.591046 209 25ft 0kts
04-Jun-17 15:32 45.590046 -122.591046 209 25ft 0kts
04-Jun-17 15:33 45.590046 -122.591046 209 25ft 0kts
04-Jun-17 15:34 45.590046 -122.591046 209 25ft 0kts
04-Jun-17 15:35 45.590046 -122.591046 209 25ft 0kts
04-Jun-17 15:36 45.590046 -122.591046 209 25ft 0kts
04-Jun-17 15:37 45.590083 -122.591017 209 25ft 2kts
04-Jun-17 15:38 45.590618 -122.590583 210 25ft 2kts
04-Jun-17 15:39 45.590640 -122.590565 210 25ft 0kts
04-Jun-17 15:40 45.590639 -122.590565 210 25ft 0kts
04-Jun-17 15:41 45.590605 -122.590562 164 25ft 0kts
04-Jun-17 15:42 45.589584 -122.587874 115 25ft 13kts
04-Jun-17 15:43 45.587963 -122.581366 117 25ft 23kts
04-Jun-17 15:44 45.584458 -122.572309 118 25ft 26kts
04-Jun-17 15:45 45.582693 -122.567556 86 27ft 0kts
04-Jun-17 15:46 45.583303 -122.566754 30 26ft 7kts
04-Jun-17 15:47 45.589736 -122.582612 299 37ft 159kts
04-Jun-17 15:48 45.610633 -122.636078 286 2644ft 190kts
04-Jun-17 15:49 45.632797 -122.709792 299 4827ft 259kts
04-Jun-17 15:50 45.665994 -122.791944 295 7526ft 271kts
04-Jun-17 15:51 45.658831 -122.880116 240 10288ft 281kts
04-Jun-17 15:52 45.593255 -122.926029 186 11876ft 342kts
04-Jun-17 15:53 45.505334 -122.935891 186 13893ft 365kts
04-Jun-17 15:54 45.409473 -122.947058 187 16145ft 375kts
04-Jun-17 15:55 45.310720 -122.958537 187 18195ft 385kts
04-Jun-17 15:56 45.209338 -122.975378 200 20033ft 391kts
04-Jun-17 15:57 45.112581 -123.024000 202 21637ft 401kts
04-Jun-17 15:58 45.014383 -123.073302 203 23100ft 410kts
04-Jun-17 15:59 44.910186 -123.125426 204 24418ft 422kts
04-Jun-17 16:00 44.808859 -123.175913 204 25612ft 430kts
04-Jun-17 16:01 44.700813 -123.229547 205 26769ft 439kts
04-Jun-17 16:02 44.589893 -123.284385 205 27856ft 447kts
04-Jun-17 16:03 44.476248 -123.327258 187 28816ft 469kts
04-Jun-17 16:04 44.354281 -123.322801 184 29724ft 478kts
04-Jun-17 16:05 44.231481 -123.317880 184 30897ft 476kts
04-Jun-17 16:06 44.111309 -123.313097 184 31943ft 476kts
04-Jun-17 16:07 43.991870 -123.308363 185 32872ft 477kts
04-Jun-17 16:08 43.877511 -123.303847 185 33685ft 478kts
04-Jun-17 16:09 43.752841 -123.298938 185 34549ft 477kts
04-Jun-17 16:10 43.629474 -123.294105 185 35373ft 476kts
04-Jun-17 16:11 43.509669 -123.289429 185 36115ft 475kts
04-Jun-17 16:12 43.384208 -123.284552 185 36819ft 474kts
04-Jun-17 16:13 43.259931 -123.279736 185 37156ft 472kts
04-Jun-17 16:14 43.143145 -123.275206 185 37161ft 458kts
04-Jun-17 16:15 43.041789 -123.271346 185 37159ft 456kts
04-Jun-17 16:16 42.922921 -123.266794 185 37196ft 457kts
04-Jun-17 16:17 42.789267 -123.261697 186 37189ft 454kts
04-Jun-17 16:18 42.667857 -123.257088 186 37123ft 452kts
04-Jun-17 16:19 42.575546 -123.253596 186 37081ft 452kts
04-Jun-17 16:20 42.431839 -123.248207 186 37071ft 451kts
04-Jun-17 16:21 42.328615 -123.244386 186 37077ft 451kts
04-Jun-17 16:22 42.183847 -123.239082 186 37088ft 452kts
04-Jun-17 16:23 42.079885 -123.235272 186 37094ft 452kts
04-Jun-17 16:24 41.955634 -123.230736 186 37099ft 453kts
04-Jun-17 16:25 41.836706 -123.226414 186 37084ft 453kts
04-Jun-17 16:26 41.712403 -123.221911 186 37068ft 452kts
04-Jun-17 16:27 41.588723 -123.217479 186 37090ft 452kts
04-Jun-17 16:28 41.464663 -123.213196 186 37089ft 452kts
04-Jun-17 16:29 41.340800 -123.208828 185 37086ft 453kts
04-Jun-17 16:30 41.216627 -123.196226 183 37081ft 455kts
04-Jun-17 16:31 41.091673 -123.183149 183 37067ft 455kts
04-Jun-17 16:32 40.967602 -123.170204 182 37011ft 452kts
04-Jun-17 16:33 40.849932 -123.157982 182 36961ft 447kts
04-Jun-17 16:34 40.727662 -123.145328 182 36899ft 445kts
04-Jun-17 16:35 40.605585 -123.132740 182 36874ft 444kts
04-Jun-17 16:36 40.483136 -123.120158 182 36871ft 444kts
04-Jun-17 16:37 40.360700 -123.107623 182 36888ft 445kts
04-Jun-17 16:38 40.242945 -123.095610 182 36913ft 446kts
04-Jun-17 16:39 40.121344 -123.083247 182 36942ft 446kts
04-Jun-17 16:40 39.999271 -123.070882 182 36987ft 447kts
04-Jun-17 16:41 39.880671 -123.058911 182 36983ft 447kts
04-Jun-17 16:42 39.777440 -123.048525 182 36987ft 447kts
04-Jun-17 16:43 39.654443 -123.036191 182 36999ft 447kts
04-Jun-17 16:44 39.532885 -123.024045 182 36990ft 447kts
04-Jun-17 16:45 39.409878 -123.011797 182 36988ft 448kts
04-Jun-17 16:46 39.287019 -122.999606 182 36992ft 448kts
04-Jun-17 16:47 39.163849 -122.987428 182 36996ft 448kts
04-Jun-17 16:48 39.041193 -122.975342 182 36995ft 448kts
04-Jun-17 16:49 38.917193 -122.963167 180 35916ft 451kts
04-Jun-17 16:50 38.838805 -122.948372 171 34139ft 463kts
04-Jun-17 16:51 38.714168 -122.911434 171 31451ft 466kts
04-Jun-17 16:52 38.592059 -122.875388 171 29491ft 441kts
04-Jun-17 16:53 38.475842 -122.841186 170 26349ft 419kts
04-Jun-17 16:54 38.363931 -122.808373 170 24143ft 413kts
04-Jun-17 16:55 38.256056 -122.776802 170 21989ft 389kts
04-Jun-17 16:56 38.151985 -122.746513 170 19861ft 384kts
04-Jun-17 16:57 38.049739 -122.716846 170 17920ft 372kts
04-Jun-17 16:58 37.951242 -122.688355 169 16052ft 359kts
04-Jun-17 16:59 37.864815 -122.637069 141 14208ft 356kts
04-Jun-17 17:00 37.793128 -122.560806 141 11638ft 333kts
04-Jun-17 17:01 37.727596 -122.491526 142 11011ft 301kts
04-Jun-17 17:02 37.666610 -122.426698 142 11002ft 301kts
04-Jun-17 17:03 37.610431 -122.355531 108 11005ft 308kts
04-Jun-17 17:04 37.603711 -122.259577 94 10141ft 304kts
04-Jun-17 17:05 37.599321 -122.160724 94 8848ft 299kts
04-Jun-17 17:06 37.594698 -122.062229 94 7548ft 294kts
04-Jun-17 17:07 37.590404 -121.965297 95 6278ft 289kts
04-Jun-17 17:08 37.537928 -121.915796 192 4833ft 268kts
04-Jun-17 17:09 37.469025 -121.934597 209 3988ft 266kts
04-Jun-17 17:10 37.457102 -122.004809 294 3986ft 222kts
04-Jun-17 17:11 37.487964 -122.070696 301 3989ft 222kts
04-Jun-17 17:12 37.517263 -122.133636 299 3811ft 194kts
04-Jun-17 17:13 37.538743 -122.184294 296 3072ft 153kts
04-Jun-17 17:14 37.558037 -122.230316 296 2267ft 151kts
04-Jun-17 17:15 37.576091 -122.273393 294 1512ft 125kts
04-Jun-17 17:16 37.591419 -122.309808 293 883ft 116kts
04-Jun-17 17:17 37.606100 -122.345035 291 252ft 113kts
04-Jun-17 17:18 37.618166 -122.373730 298 17ft 51kts
04-Jun-17 17:19 37.622187 -122.384525 269 31ft 18kts
04-Jun-17 17:20 37.621746 -122.387459 262 32ft 7kts
04-Jun-17 17:21 37.620694 -122.387775 199 32ft 0kts

Navigation Log

Ident Type
Flight plan parsing failed, navigation log unavailable